createdAt,value
2023-02-17T00:01:40.654Z,101294.56
2023-02-17T00:04:09.081Z,101279.63
2023-02-17T00:06:38.050Z,101269.81
2023-02-17T00:09:07.630Z,101279.41
2023-02-17T00:11:36.307Z,101274.09
2023-02-17T00:14:06.290Z,101275.81
2023-02-17T00:16:34.801Z,101271.69
2023-02-17T00:19:24.871Z,101270.47
2023-02-17T00:21:56.003Z,101274.44
2023-02-17T00:24:24.748Z,101275.06
2023-02-17T00:26:53.284Z,101265.22
2023-02-17T00:29:23.823Z,101267.53
2023-02-17T00:31:54.710Z,101262.97
2023-02-17T00:34:23.167Z,101262.97
2023-02-17T00:36:51.762Z,101267.53
2023-02-17T00:39:20.294Z,101268.41
2023-02-17T00:41:48.705Z,101264.78
2023-02-17T00:44:19.511Z,101253.25
2023-02-17T00:46:49.825Z,101255.69
2023-02-17T00:49:21.000Z,101249.56
2023-02-17T00:51:50.306Z,101248.84
2023-02-17T00:54:20.573Z,101236.50
2023-02-17T00:56:49.011Z,101239.03
2023-02-17T00:59:17.306Z,101235.50
2023-02-17T01:01:46.082Z,101220.47
2023-02-17T01:04:15.910Z,101215.88
2023-02-17T01:06:44.295Z,101208.47
2023-02-17T01:09:15.987Z,101214.88
2023-02-17T01:11:45.453Z,101202.81
2023-02-17T01:14:15.539Z,101192.28
2023-02-17T01:16:47.794Z,101189.78
2023-02-17T01:19:20.505Z,101188.84
2023-02-17T01:21:49.043Z,101181.25
2023-02-17T01:24:17.412Z,101180.59
2023-02-17T01:26:45.849Z,101176.28
2023-02-17T01:29:14.310Z,101169.03
2023-02-17T01:31:42.786Z,101161.78
2023-02-17T01:34:12.505Z,101159.72
2023-02-17T01:36:42.444Z,101152.47
2023-02-17T01:39:14.754Z,101131.97
2023-02-17T01:41:44.445Z,101127.03
2023-02-17T01:44:18.093Z,101129.88
2023-02-17T01:46:49.624Z,101133.13
2023-02-17T01:49:28.129Z,101129.50
2023-02-17T01:52:09.184Z,101117.78
2023-02-17T01:54:45.229Z,101097.22
2023-02-17T01:57:18.661Z,101111.22
2023-02-17T01:59:48.133Z,101103.59
2023-02-17T02:02:19.249Z,101095.47
2023-02-17T02:04:52.424Z,101089.94
2023-02-17T02:07:29.167Z,101093.00
2023-02-17T02:10:00.047Z,101085.88
2023-02-17T02:12:31.358Z,101084.41
2023-02-17T02:15:06.228Z,101078.97
2023-02-17T02:17:49.424Z,101064.59
2023-02-17T02:21:29.014Z,101066.94
2023-02-17T02:24:19.985Z,101064.59
2023-02-17T02:27:30.475Z,101070.41
2023-02-17T02:30:34.815Z,101057.91
2023-02-17T02:33:17.841Z,101058.47
2023-02-17T02:35:58.521Z,101044.34
2023-02-17T02:38:36.617Z,101030.41
2023-02-17T02:41:14.327Z,101030.13
2023-02-17T02:43:44.269Z,101012.84
2023-02-17T02:46:12.917Z,101016.97
2023-02-17T02:48:43.583Z,101010.06
2023-02-17T02:51:47.302Z,101019.91
2023-02-17T02:54:43.297Z,101012.44
2023-02-17T02:57:41.941Z,101010.94
2023-02-17T03:00:22.613Z,101011.47
2023-02-17T03:02:59.088Z,101010.75
2023-02-17T03:05:39.852Z,101011.94
2023-02-17T03:08:17.268Z,100996.41
2023-02-17T03:10:49.584Z,100995.66
2023-02-17T03:13:19.105Z,100992.13
2023-02-17T03:15:49.564Z,100981.53
2023-02-17T03:18:18.118Z,100980.75
2023-02-17T03:20:55.615Z,100965.09
2023-02-17T03:23:24.145Z,100981.75
2023-02-17T03:25:52.593Z,100975.00
2023-02-17T03:28:20.930Z,100970.50
2023-02-17T03:30:49.390Z,100967.84
2023-02-17T03:33:17.991Z,100957.91
2023-02-17T03:35:47.764Z,100963.50
2023-02-17T03:38:16.291Z,100966.16
2023-02-17T03:40:44.703Z,100961.59
2023-02-17T03:43:13.114Z,100955.81
2023-02-17T03:45:41.648Z,100947.25
2023-02-17T03:48:10.179Z,100951.53
2023-02-17T03:50:38.594Z,100959.22
2023-02-17T03:53:08.398Z,100961.16
2023-02-17T03:55:37.366Z,100974.44
2023-02-17T03:58:06.098Z,100961.72
2023-02-17T04:00:34.842Z,100959.91
2023-02-17T04:03:03.414Z,100954.47
2023-02-17T04:05:31.831Z,100948.66
2023-02-17T04:08:02.497Z,100942.38
2023-02-17T04:10:32.364Z,100926.97
2023-02-17T04:13:00.818Z,100943.41
2023-02-17T04:15:29.929Z,100933.06
2023-02-17T04:17:58.408Z,100920.97
2023-02-17T04:20:27.004Z,100929.31
2023-02-17T04:22:55.482Z,100927.72
2023-02-17T04:25:24.020Z,100928.69
2023-02-17T04:27:54.444Z,100933.38
2023-02-17T04:30:23.223Z,100943.66
2023-02-17T04:32:51.580Z,100932.00
2023-02-17T04:35:20.087Z,100940.25
2023-02-17T04:37:48.496Z,100932.09
2023-02-17T04:40:17.585Z,100932.97
2023-02-17T04:42:46.542Z,100925.25
2023-02-17T04:45:16.742Z,100916.91
2023-02-17T04:47:45.240Z,100905.81
2023-02-17T04:50:14.079Z,100912.22
2023-02-17T04:52:42.625Z,100908.47
2023-02-17T04:55:11.697Z,100904.00
2023-02-17T04:57:40.067Z,100887.41
2023-02-17T05:00:10.886Z,100893.63
2023-02-17T05:02:40.852Z,100889.56
2023-02-17T05:05:09.977Z,100878.31
2023-02-17T05:07:40.660Z,100867.06
2023-02-17T05:10:10.975Z,100872.13
2023-02-17T05:12:39.938Z,100872.75
2023-02-17T05:15:10.487Z,100857.66
2023-02-17T05:17:40.829Z,100859.19
2023-02-17T05:20:10.885Z,100847.38
2023-02-17T05:22:39.946Z,100843.31
2023-02-17T05:25:09.569Z,100855.75
2023-02-17T05:27:38.676Z,100846.09
2023-02-17T05:30:09.425Z,100849.44
2023-02-17T05:32:38.694Z,100839.06
2023-02-17T05:35:09.806Z,100826.50
2023-02-17T05:37:38.968Z,100817.09
2023-02-17T05:40:10.304Z,100823.00
2023-02-17T05:42:39.210Z,100819.16
2023-02-17T05:45:08.908Z,100814.44
2023-02-17T05:47:37.639Z,100813.56
2023-02-17T05:50:09.176Z,100816.13
2023-02-17T05:52:37.851Z,100807.16
2023-02-17T05:55:07.531Z,100799.22
2023-02-17T05:57:35.940Z,100785.84
2023-02-17T06:00:06.946Z,100779.34
2023-02-17T06:02:35.355Z,100781.16
2023-02-17T06:05:03.879Z,100769.78
2023-02-17T06:07:34.007Z,100770.09
2023-02-17T06:10:02.574Z,100772.88
2023-02-17T06:12:31.024Z,100778.22
2023-02-17T06:14:59.541Z,100784.84
2023-02-17T06:17:28.532Z,100777.78
2023-02-17T06:19:56.976Z,100785.69
2023-02-17T06:22:25.828Z,100771.78
2023-02-17T06:24:56.588Z,100774.97
2023-02-17T06:27:25.390Z,100768.78
2023-02-17T06:29:53.755Z,100756.97
2023-02-17T06:32:22.387Z,100762.78
2023-02-17T06:34:51.083Z,100750.56
2023-02-17T06:37:19.679Z,100736.41
2023-02-17T06:39:48.094Z,100749.22
2023-02-17T06:42:17.844Z,100749.88
2023-02-17T06:44:46.592Z,100743.91
2023-02-17T06:47:15.106Z,100738.91
2023-02-17T06:49:43.600Z,100730.03
2023-02-17T06:52:12.305Z,100731.44
2023-02-17T06:54:40.832Z,100717.09
2023-02-17T06:57:09.297Z,100706.19
2023-02-17T06:59:41.141Z,100703.72
2023-02-17T07:02:13.440Z,100696.13
2023-02-17T07:04:42.348Z,100689.66
2023-02-17T07:07:11.990Z,100674.75
2023-02-17T07:09:42.011Z,100673.41
2023-02-17T07:12:10.512Z,100673.34
2023-02-17T07:14:40.902Z,100666.41
2023-02-17T07:17:09.388Z,100673.59
2023-02-17T07:19:37.938Z,100672.25
2023-02-17T07:22:06.313Z,100664.13
2023-02-17T07:24:35.095Z,100664.72
2023-02-17T07:27:05.718Z,100665.78
2023-02-17T07:29:34.397Z,100670.34
2023-02-17T07:32:04.370Z,100654.63
2023-02-17T07:34:32.915Z,100646.34
2023-02-17T07:37:01.504Z,100647.78
2023-02-17T07:39:29.892Z,100646.09
2023-02-17T07:42:01.173Z,100635.88
2023-02-17T07:44:29.896Z,100644.53
2023-02-17T07:47:01.353Z,100627.34
2023-02-17T07:49:31.979Z,100622.47
2023-02-17T07:52:03.546Z,100611.44
2023-02-17T07:54:34.419Z,100610.47
2023-02-17T07:57:04.040Z,100608.00
2023-02-17T07:59:33.516Z,100609.81
2023-02-17T08:02:05.123Z,100618.75
2023-02-17T08:04:36.072Z,100612.53
2023-02-17T08:07:05.127Z,100608.66
2023-02-17T08:09:51.476Z,100595.47
2023-02-17T08:12:43.104Z,100588.06
2023-02-17T08:15:13.680Z,100580.25
2023-02-17T08:17:44.615Z,100581.59
2023-02-17T08:20:16.059Z,100574.53
2023-02-17T08:22:44.415Z,100575.88
2023-02-17T08:25:13.521Z,100559.19
2023-02-17T08:27:43.656Z,100566.63
2023-02-17T08:30:13.846Z,100552.13
2023-02-17T08:32:42.678Z,100551.16
2023-02-17T08:35:12.352Z,100550.19
2023-02-17T08:37:43.503Z,100543.97
2023-02-17T08:40:13.064Z,100531.91
2023-02-17T08:42:42.350Z,100526.91
2023-02-17T08:45:13.838Z,100529.72
2023-02-17T08:47:43.100Z,100515.09
2023-02-17T08:50:17.308Z,100507.78
2023-02-17T08:52:48.308Z,100510.44
2023-02-17T08:55:19.110Z,100494.50
2023-02-17T08:57:48.038Z,100493.16
2023-02-17T09:00:19.227Z,100486.81
2023-02-17T09:02:47.777Z,100484.16
2023-02-17T09:05:16.873Z,100484.16
2023-02-17T09:07:46.875Z,100485.22
2023-02-17T09:10:16.919Z,100471.72
2023-02-17T09:12:45.427Z,100469.66
2023-02-17T09:15:14.319Z,100469.50
2023-02-17T09:17:42.969Z,100448.91
2023-02-17T09:20:24.424Z,100451.22
2023-02-17T09:22:54.804Z,100446.34
2023-02-17T09:25:23.616Z,100450.97
2023-02-17T09:27:53.015Z,100467.56
2023-02-17T09:30:21.754Z,100445.38
2023-02-17T09:32:50.521Z,100450.47
2023-02-17T09:35:20.669Z,100424.50
2023-02-17T09:37:49.183Z,100418.06
2023-02-17T09:40:25.223Z,100403.22
2023-02-17T09:42:53.728Z,100402.03
2023-02-17T09:45:28.472Z,100416.13
2023-02-17T09:48:02.995Z,100415.78
2023-02-17T09:50:43.968Z,100408.81
2023-02-17T09:53:23.520Z,100406.25
2023-02-17T09:55:57.844Z,100400.78
2023-02-17T09:58:37.379Z,100394.06
2023-02-17T10:01:12.754Z,100388.81
2023-02-17T10:03:47.455Z,100385.78
2023-02-17T10:06:22.009Z,100366.28
2023-02-17T10:08:58.185Z,100361.75
2023-02-17T10:11:33.801Z,100371.06
2023-02-17T10:14:11.548Z,100385.88
2023-02-17T10:16:49.381Z,100380.91
2023-02-17T10:19:28.685Z,100384.81
2023-02-17T10:22:08.572Z,100379.22
2023-02-17T10:24:37.156Z,100363.25
2023-02-17T10:27:26.068Z,100355.94
2023-02-17T10:30:16.259Z,100364.34
2023-02-17T10:33:01.959Z,100378.34
2023-02-17T10:35:52.562Z,100368.72
2023-02-17T10:38:44.595Z,100361.94
2023-02-17T10:41:18.838Z,100351.56
2023-02-17T10:43:50.391Z,100344.47
2023-02-17T10:46:28.458Z,100334.94
2023-02-17T10:49:01.144Z,100345.66
2023-02-17T10:51:33.066Z,100340.31
2023-02-17T10:54:12.792Z,100340.09
2023-02-17T10:56:48.958Z,100344.25
2023-02-17T10:59:24.856Z,100344.81
2023-02-17T11:01:57.618Z,100345.66
2023-02-17T11:04:26.221Z,100361.25
2023-02-17T11:06:56.385Z,100350.75
2023-02-17T11:09:28.913Z,100327.63
2023-02-17T11:12:03.348Z,100340.03
2023-02-17T11:14:37.856Z,100333.69
2023-02-17T11:17:19.510Z,100310.53
2023-02-17T11:19:58.862Z,100288.41
2023-02-17T11:22:41.206Z,100297.13
2023-02-17T11:25:24.347Z,100299.13
2023-02-17T11:27:53.684Z,100306.44
2023-02-17T11:30:25.832Z,100289.50
2023-02-17T11:32:55.228Z,100272.56
2023-02-17T11:35:29.739Z,100273.41
2023-02-17T11:38:03.450Z,100275.69
2023-02-17T11:40:34.221Z,100287.25
2023-02-17T11:43:04.969Z,100280.81
2023-02-17T11:45:56.124Z,100258.81
2023-02-17T11:49:03.466Z,100274.38
2023-02-17T11:51:48.095Z,100274.84
2023-02-17T11:54:32.956Z,100272.44
2023-02-17T11:57:23.983Z,100261.19
2023-02-17T12:00:12.045Z,100256.38
2023-02-17T12:03:13.855Z,100254.13
2023-02-17T12:06:00.023Z,100250.16
2023-02-17T12:08:49.160Z,100262.03
2023-02-17T12:11:32.261Z,100253.13
2023-02-17T12:14:46.678Z,100248.03
2023-02-17T12:17:27.809Z,100253.25
2023-02-17T12:20:15.870Z,100247.16
2023-02-17T12:23:02.053Z,100239.72
2023-02-17T12:25:39.536Z,100228.28
2023-02-17T12:28:37.001Z,100220.22
2023-02-17T12:31:19.791Z,100230.94
2023-02-17T12:34:00.762Z,100235.34
2023-02-17T12:36:38.588Z,100227.84
2023-02-17T12:39:18.845Z,100222.25
2023-02-17T12:41:54.707Z,100201.88
2023-02-17T12:44:30.234Z,100218.84
2023-02-17T12:47:05.287Z,100216.03
2023-02-17T12:49:44.493Z,100181.72
2023-02-17T12:52:23.510Z,100197.44
2023-02-17T12:54:59.510Z,100195.72
2023-02-17T12:57:40.134Z,100190.06
2023-02-17T13:00:21.457Z,100166.91
2023-02-17T13:02:50.146Z,100193.91
2023-02-17T13:05:28.977Z,100203.63
2023-02-17T13:08:06.406Z,100191.22
2023-02-17T13:10:39.785Z,100190.06
2023-02-17T13:13:14.330Z,100193.47
2023-02-17T13:15:46.519Z,100194.22
2023-02-17T13:18:28.006Z,100182.75
2023-02-17T13:21:01.062Z,100153.25
2023-02-17T13:23:39.995Z,100170.31
2023-02-17T13:26:30.977Z,100187.16
2023-02-17T13:29:23.013Z,100194.91
2023-02-17T13:31:57.404Z,100186.84
2023-02-17T13:34:35.857Z,100176.97
2023-02-17T13:37:20.822Z,100194.91
2023-02-17T13:39:50.907Z,100168.34
2023-02-17T13:42:41.666Z,100178.53
2023-02-17T13:45:28.021Z,100164.84
2023-02-17T13:47:59.785Z,100141.28
2023-02-17T13:50:35.725Z,100127.44
2023-02-17T13:53:22.438Z,100161.78
2023-02-17T13:55:54.877Z,100155.69
2023-02-17T13:58:28.017Z,100149.47
2023-02-17T14:00:58.471Z,100171.09
2023-02-17T14:03:30.085Z,100175.03
2023-02-17T14:06:01.545Z,100163.00
2023-02-17T14:08:38.443Z,100167.94
2023-02-17T14:11:13.813Z,100179.66
2023-02-17T14:13:46.826Z,100181.06
2023-02-17T14:16:31.418Z,100186.41
2023-02-17T14:19:06.849Z,100183.41
2023-02-17T14:21:37.417Z,100165.72
2023-02-17T14:24:06.436Z,100171.50
2023-02-17T14:26:44.262Z,100156.66
2023-02-17T14:29:15.074Z,100190.53
2023-02-17T14:31:47.570Z,100179.13
2023-02-17T14:34:28.398Z,100197.34
2023-02-17T14:37:07.986Z,100194.66
2023-02-17T14:39:36.399Z,100185.31
2023-02-17T14:42:06.654Z,100192.19
2023-02-17T14:44:35.174Z,100158.25
2023-02-17T14:47:03.695Z,100197.69
2023-02-17T14:49:32.181Z,100144.78
2023-02-17T14:52:00.630Z,100179.28
2023-02-17T14:54:32.696Z,100180.06
2023-02-17T14:57:08.398Z,100203.66
2023-02-17T14:59:36.895Z,100179.00
2023-02-17T15:02:07.813Z,100161.84
2023-02-17T15:04:36.895Z,100175.72
2023-02-17T15:07:05.297Z,100170.78
2023-02-17T15:09:33.840Z,100155.25
2023-02-17T15:12:02.917Z,100158.25
2023-02-17T15:14:32.800Z,100107.59
2023-02-17T15:17:01.308Z,100163.31
2023-02-17T15:19:29.712Z,100178.84
2023-02-17T15:22:01.424Z,100185.13
2023-02-17T15:24:33.660Z,100183.31
2023-02-17T15:27:03.542Z,100153.50
2023-02-17T15:29:34.133Z,100182.22
2023-02-17T15:32:06.198Z,100168.56
2023-02-17T15:34:36.481Z,100177.72
2023-02-17T15:37:04.977Z,100204.06
2023-02-17T15:39:34.456Z,100175.34
2023-02-17T15:42:08.653Z,100195.34
2023-02-17T15:44:45.121Z,100199.91
2023-02-17T15:47:17.683Z,100182.91
2023-02-17T15:49:46.254Z,100199.25
2023-02-17T15:52:16.019Z,100205.34
2023-02-17T15:54:45.073Z,100232.22
2023-02-17T15:57:23.511Z,100206.84
2023-02-17T15:59:55.045Z,100219.16
2023-02-17T16:02:26.524Z,100222.81
2023-02-17T16:04:54.995Z,100232.06
2023-02-17T16:07:23.406Z,100186.06
2023-02-17T16:09:51.888Z,100237.19
2023-02-17T16:12:27.177Z,100247.41
2023-02-17T16:14:58.437Z,100247.16
2023-02-17T16:17:28.179Z,100264.53
2023-02-17T16:19:56.649Z,100257.63
2023-02-17T16:22:25.231Z,100264.88
2023-02-17T16:24:53.698Z,100261.47
2023-02-17T16:27:24.075Z,100250.56
2023-02-17T16:29:52.563Z,100285.31
2023-02-17T16:32:22.530Z,100284.84
2023-02-17T16:34:51.247Z,100276.34
2023-02-17T16:37:20.125Z,100285.31
2023-02-17T16:39:48.577Z,100294.09
2023-02-17T16:42:18.530Z,100288.25
2023-02-17T16:44:46.998Z,100300.38
2023-02-17T16:47:23.912Z,100296.59
2023-02-17T16:49:52.792Z,100303.44
2023-02-17T16:52:26.655Z,100305.63
2023-02-17T16:54:55.801Z,100314.84
2023-02-17T16:57:24.956Z,100311.78
2023-02-17T16:59:53.533Z,100328.94
2023-02-17T17:02:23.486Z,100333.19
2023-02-17T17:04:51.956Z,100335.50
2023-02-17T17:07:20.351Z,100341.44
2023-02-17T17:10:12.489Z,100340.19
2023-02-17T17:12:37.244Z,100332.16
2023-02-17T17:15:06.600Z,100340.84
2023-02-17T17:17:44.174Z,100335.50
2023-02-17T17:20:17.452Z,100337.59
2023-02-17T17:22:46.761Z,100330.53
2023-02-17T17:25:15.843Z,100318.31
2023-02-17T17:27:46.006Z,100338.34
2023-02-17T17:30:20.604Z,100322.03
2023-02-17T17:32:50.864Z,100363.97
2023-02-17T17:35:20.405Z,100363.97
2023-02-17T17:37:49.754Z,100368.50
2023-02-17T17:40:22.240Z,100381.38
2023-02-17T17:42:50.695Z,100370.38
2023-02-17T17:45:19.768Z,100380.72
2023-02-17T17:47:49.678Z,100377.38
2023-02-17T17:50:22.845Z,100386.38
2023-02-17T17:52:53.476Z,100380.81
2023-02-17T17:55:22.070Z,100384.91
2023-02-17T17:57:50.494Z,100383.53
2023-02-17T18:00:20.582Z,100347.38
2023-02-17T18:02:50.370Z,100396.94
2023-02-17T18:05:19.144Z,100381.16
2023-02-17T18:07:51.661Z,100391.19
2023-02-17T18:10:20.234Z,100411.50
2023-02-17T18:12:49.700Z,100422.19
2023-02-17T18:15:19.769Z,100423.09
2023-02-17T18:17:53.941Z,100441.41
2023-02-17T18:20:22.790Z,100427.28
2023-02-17T18:22:51.199Z,100427.28
2023-02-17T18:25:21.390Z,100434.91
2023-02-17T18:27:49.859Z,100435.44
2023-02-17T18:30:23.405Z,100418.78
2023-02-17T18:32:53.306Z,100435.25
2023-02-17T18:35:22.568Z,100444.47
2023-02-17T18:37:51.244Z,100454.75
2023-02-17T18:40:22.549Z,100437.16
2023-02-17T18:42:52.097Z,100455.00
2023-02-17T18:45:20.623Z,100451.69
2023-02-17T18:47:49.525Z,100467.09
2023-02-17T18:50:19.735Z,100491.34
2023-02-17T18:52:48.231Z,100441.16
2023-02-17T18:55:16.645Z,100455.66
2023-02-17T18:57:46.130Z,100485.94
2023-02-17T19:00:16.780Z,100484.91
2023-02-17T19:02:45.429Z,100489.16
2023-02-17T19:05:14.747Z,100491.59
2023-02-17T19:07:44.590Z,100483.47
2023-02-17T19:10:15.838Z,100512.13
2023-02-17T19:12:44.209Z,100521.59
2023-02-17T19:15:14.050Z,100519.69
2023-02-17T19:17:43.377Z,100519.25
2023-02-17T19:20:13.762Z,100513.06
2023-02-17T19:22:45.485Z,100529.69
2023-02-17T19:25:14.384Z,100508.53
2023-02-17T19:27:43.517Z,100517.09
2023-02-17T19:30:15.072Z,100558.56
2023-02-17T19:32:44.171Z,100555.06
2023-02-17T19:35:13.345Z,100580.16
2023-02-17T19:37:43.724Z,100598.31
2023-02-17T19:40:13.527Z,100597.00
2023-02-17T19:42:42.692Z,100585.66
2023-02-17T19:45:12.749Z,100608.75
2023-02-17T19:47:41.763Z,100613.75
2023-02-17T19:50:11.320Z,100605.97
2023-02-17T19:52:39.763Z,100612.31
2023-02-17T19:55:11.399Z,100623.78
2023-02-17T19:57:40.896Z,100630.84
2023-02-17T20:00:13.138Z,100631.59
2023-02-17T20:02:42.319Z,100640.91
2023-02-17T20:05:11.375Z,100647.16
2023-02-17T20:07:41.029Z,100623.72
2023-02-17T20:10:13.738Z,100629.09
2023-02-17T20:12:43.005Z,100644.03
2023-02-17T20:15:12.707Z,100656.41
2023-02-17T20:17:52.613Z,100628.22
2023-02-17T20:20:21.242Z,100657.28
2023-02-17T20:22:49.737Z,100604.94
2023-02-17T20:25:19.798Z,100660.03
2023-02-17T20:27:48.603Z,100663.22
2023-02-17T20:30:18.499Z,100655.97
2023-02-17T20:32:48.189Z,100669.44
2023-02-17T20:35:17.629Z,100655.13
2023-02-17T20:37:46.048Z,100660.28
2023-02-17T20:40:15.106Z,100656.22
2023-02-17T20:42:45.014Z,100661.13
2023-02-17T20:45:13.455Z,100657.59
2023-02-17T20:47:42.923Z,100682.47
2023-02-17T20:50:15.742Z,100687.56
2023-02-17T20:52:45.238Z,100682.56
2023-02-17T20:55:16.601Z,100711.81
2023-02-17T20:57:46.645Z,100697.41
2023-02-17T21:00:21.714Z,100695.81
2023-02-17T21:02:52.286Z,100702.97
2023-02-17T21:05:21.183Z,100726.88
2023-02-17T21:07:49.685Z,100712.22
2023-02-17T21:10:22.398Z,100717.03
2023-02-17T21:12:52.375Z,100728.75
2023-02-17T21:15:21.538Z,100739.19
2023-02-17T21:17:50.155Z,100745.22
2023-02-17T21:20:21.917Z,100736.44
2023-02-17T21:22:51.279Z,100738.94
2023-02-17T21:25:19.967Z,100755.88
2023-02-17T21:27:48.273Z,100741.78
2023-02-17T21:30:19.496Z,100747.44
2023-02-17T21:32:48.025Z,100740.38
2023-02-17T21:35:17.568Z,100765.44
2023-02-17T21:37:45.878Z,100770.03
2023-02-17T21:40:14.965Z,100776.31
2023-02-17T21:43:01.258Z,100769.66
2023-02-17T21:45:31.343Z,100768.56
2023-02-17T21:47:59.685Z,100781.41
2023-02-17T21:50:28.357Z,100774.53
2023-02-17T21:52:56.640Z,100778.03
2023-02-17T21:55:26.247Z,100789.97
2023-02-17T21:57:54.709Z,100784.09
2023-02-17T22:00:23.294Z,100791.78
2023-02-17T22:02:53.318Z,100787.97
2023-02-17T22:05:21.735Z,100798.47
2023-02-17T22:07:50.633Z,100780.50
2023-02-17T22:10:19.558Z,100788.75
2023-02-17T22:12:48.824Z,100801.63
2023-02-17T22:15:17.572Z,100794.00
2023-02-17T22:17:48.035Z,100797.75
2023-02-17T22:20:19.443Z,100813.75
2023-02-17T22:22:48.010Z,100841.84
2023-02-17T22:25:16.574Z,100833.38
2023-02-17T22:27:44.994Z,100838.16
2023-02-17T22:30:14.367Z,100854.78
2023-02-17T22:32:43.812Z,100874.41
2023-02-17T22:35:19.962Z,100840.69
2023-02-17T22:37:48.314Z,100840.00
2023-02-17T22:40:16.945Z,100853.72
2023-02-17T22:42:45.809Z,100849.63
2023-02-17T22:45:15.501Z,100856.91
2023-02-17T22:47:44.336Z,100860.13
2023-02-17T22:50:13.471Z,100856.22
2023-02-17T22:52:44.404Z,100869.38
2023-02-17T22:55:13.077Z,100856.72
2023-02-17T22:57:42.654Z,100860.03
2023-02-17T23:00:15.074Z,100837.75
2023-02-17T23:02:43.521Z,100854.97
2023-02-17T23:05:13.402Z,100883.28
2023-02-17T23:07:43.581Z,100858.13
2023-02-17T23:10:13.019Z,100867.09
2023-02-17T23:12:42.575Z,100866.25
2023-02-17T23:15:13.475Z,100864.31
2023-02-17T23:17:56.298Z,100876.13
2023-02-17T23:20:26.481Z,100882.25
2023-02-17T23:22:56.216Z,100882.72
2023-02-17T23:25:24.749Z,100888.22
2023-02-17T23:27:53.173Z,100882.63
2023-02-17T23:30:23.787Z,100888.06
2023-02-17T23:32:52.439Z,100896.81
2023-02-17T23:35:21.110Z,100914.72
2023-02-17T23:37:51.730Z,100898.25
2023-02-17T23:40:21.882Z,100909.19
2023-02-17T23:42:50.258Z,100911.84
2023-02-17T23:45:18.837Z,100910.16
2023-02-17T23:47:47.265Z,100844.03
2023-02-17T23:50:17.265Z,100899.28
2023-02-17T23:52:45.797Z,100889.00
2023-02-17T23:55:14.313Z,100883.66
2023-02-17T23:57:44.693Z,100891.09
